John G — WDF2677 — position and weather

sailwx.info

Track history (hours):
 
Tides and Currents Weather Stations Pressure Air Temp Water Temp Dewpoint Dewpoint Depression Visibility Wind Speed Wind Dir Waves Ship Positions

John G

Owner: Marquette Transportation Company Offshore LLC, Jefferson, LA. More information available from US FCC via Universal Licensing System and Coast Guard Vessel Documentation Center.

Last reported at 2016-Jul-08 00:07 UTC. Time now 2016-Sep-27 19:04 UTC.
Position N 29°51' W 091°54'.
Warning: this ship's position is months out of date.

Length 24 m.

Type: Towing. MMSI: 367009680.

Date/timePositionNaut miles runAvg speedWind from/ knotsBaromVisibWave heightAir tempDewpointWater temp
2016-Jul-08 00:07N 29°51' W 091°54'4 7.3
2016-Jul-07 23:33N 29°50' W 091°59'7 7.0
2016-Jul-07 22:33N 29°48' W 092°07'6 5.7
2016-Jul-07 21:33N 29°47' W 092°13'7 6.9
2016-Jul-07 20:33N 29°51' W 092°20'7 6.6
2016-Jul-07 19:33N 29°54' W 092°27'21 6.8
2016-Jul-07 16:32N 29°58' W 092°51'7 6.8
2016-Jul-07 15:33N 29°56' W 092°58'7 6.8
2016-Jul-07 14:33N 29°56' W 093°06'6 6.2
2016-Jul-07 13:33N 29°59' W 093°12'7 6.7
2016-Jul-07 12:33N 30°04' W 093°16'5 5.3
2016-Jul-07 11:33N 30°04' W 093°22'7 6.7
2016-Jul-07 10:33N 30°04' W 093°30'7 6.5
2016-Jul-07 09:33N 30°04' W 093°38'6 5.8
2016-Jul-07 08:33N 30°02' W 093°44'6 5.8
2016-Jul-07 07:33N 29°59' W 093°50'2 0.3
2016-Jul-06 23:31N 29°57' W 093°52'1 0.8
2016-Jul-06 22:33N 29°58' W 093°52'0 0.0
2016-Jul-06 21:31N 29°58' W 093°52'0 0.0
2016-Jul-06 20:33N 29°58' W 093°52'0 0.0
2016-Jul-06 19:32N 29°58' W 093°52'0 0.0
2016-Jul-06 18:33N 29°58' W 093°52'0 0.0
2016-Jul-06 17:32N 29°58' W 093°52'0 0.0
2016-Jul-06 16:32N 29°58' W 093°52'0 0.0
2016-Jul-06 15:29N 29°58' W 093°52'0 0.0
2016-Jul-06 14:32N 29°58' W 093°52'0 0.0
2016-Jul-06 13:33N 29°58' W 093°52'0 0.0
2016-Jul-06 12:32N 29°58' W 093°52'0 0.0
2016-Jul-06 11:26N 29°58' W 093°52'0 0.0
2016-Jul-06 10:33N 29°58' W 093°52'0 0.0
2016-Jul-06 09:32N 29°58' W 093°52'0 0.0
2016-Jul-06 08:28N 29°58' W 093°52'0 0.0
2016-Jul-06 07:32N 29°58' W 093°52'0 0.0
2016-Jul-06 06:33N 29°58' W 093°52'0 0.0
2016-Jul-06 05:33N 29°58' W 093°52'0 0.0
2016-Jul-06 04:33N 29°58' W 093°52'0 0.0
2016-Jul-06 03:33N 29°58' W 093°52'0 0.0
2016-Jul-06 02:33N 29°58' W 093°52'0 0.0
2016-Jul-06 01:33N 29°58' W 093°52'1 0.4
2016-Jul-05 23:31N 29°57' W 093°52'1 0.8
2016-Jul-05 22:33N 29°58' W 093°52'0 0.0
2016-Jul-05 21:33N 29°58' W 093°52'0 0.0
2016-Jul-05 20:33N 29°58' W 093°52'0 0.0
2016-Jul-05 19:32N 29°58' W 093°52'0 0.0
2016-Jul-05 18:33N 29°58' W 093°52'0 0.0
2016-Jul-05 17:33N 29°58' W 093°52'0 0.0
2016-Jul-05 16:33N 29°58' W 093°52'0 0.0
2016-Jul-05 15:33N 29°58' W 093°52'0 0.0
2016-Jul-05 14:32N 29°58' W 093°52'0 0.0
2016-Jul-05 13:32N 29°58' W 093°52'0 0.0
2016-Jul-05 12:32N 29°58' W 093°52'0 0.0
2016-Jul-05 11:33N 29°58' W 093°52'0 0.0
2016-Jul-05 10:33N 29°58' W 093°52'0 0.0
2016-Jul-05 09:30N 29°58' W 093°52'0 0.0
2016-Jul-05 08:33N 29°58' W 093°52'0 0.0
2016-Jul-05 07:32N 29°58' W 093°52'0 0.0
2016-Jul-05 06:33N 29°58' W 093°52'0 0.0
2016-Jul-05 04:33N 29°58' W 093°52'0 0.0
2016-Jul-05 03:33N 29°58' W 093°52'0 0.0
2016-Jul-05 02:33N 29°58' W 093°52'0 0.0
2016-Jul-05 01:33N 29°58' W 093°52'0 0.0
2016-Jul-05 00:31N 29°58' W 093°52'0 0.0
2016-Jul-04 23:33N 29°58' W 093°52'0 0.0
2016-Jul-04 22:33N 29°58' W 093°52'0 0.0
2016-Jul-04 21:32N 29°58' W 093°52'0 0.0
2016-Jul-04 20:33N 29°58' W 093°52'0 0.0
2016-Jul-04 19:33N 29°58' W 093°52'0 0.0
2016-Jul-04 18:32N 29°58' W 093°52'0 0.0
2016-Jul-04 17:33N 29°58' W 093°52'0 0.0
2016-Jul-04 16:33N 29°58' W 093°52'0 0.0
2016-Jul-04 15:33N 29°58' W 093°52'0 0.0
2016-Jul-04 14:33N 29°58' W 093°52'0 0.0
2016-Jul-04 13:32N 29°58' W 093°52'0 0.0
2016-Jul-04 12:32N 29°58' W 093°52'0 0.0
2016-Jul-04 11:33N 29°58' W 093°52'0 0.0
2016-Jul-04 10:33N 29°58' W 093°52'0 0.0
2016-Jul-04 09:33N 29°58' W 093°52'0 0.0
2016-Jul-04 08:33N 29°58' W 093°52'0 0.0
2016-Jul-04 07:32N 29°58' W 093°52'0 0.0
2016-Jul-04 06:33N 29°58' W 093°52'0 0.0
2016-Jul-04 05:31N 29°58' W 093°52'0 0.0
2016-Jul-04 04:33N 29°58' W 093°52'0 0.0
2016-Jul-04 03:33N 29°58' W 093°52'0 0.0
2016-Jul-04 02:33N 29°58' W 093°52'0 0.0
2016-Jul-04 01:33N 29°58' W 093°52'0 0.0
2016-Jul-04 00:32N 29°58' W 093°52'0 0.0
2016-Jul-03 23:33N 29°58' W 093°52'0 0.0
2016-Jul-03 22:33N 29°58' W 093°52'0 0.0
2016-Jul-03 21:30N 29°58' W 093°52'0 0.0
2016-Jul-03 20:27N 29°58' W 093°52'0 0.0
2016-Jul-03 19:32N 29°58' W 093°52'0 0.0
2016-Jul-03 18:33N 29°58' W 093°52'0 0.0
2016-Jul-03 17:33N 29°58' W 093°52'0 0.0
2016-Jul-03 16:32N 29°58' W 093°52'0 0.0
2016-Jul-03 15:33N 29°58' W 093°52'0 0.0
2016-Jul-03 14:33N 29°58' W 093°52'0 0.0
2016-Jul-03 13:30N 29°58' W 093°52'0 0.0
2016-Jul-03 12:32N 29°58' W 093°52'0 0.0
2016-Jul-03 11:33N 29°58' W 093°52'0 0.0
2016-Jul-03 10:33N 29°58' W 093°52'0 0.0
2016-Jul-03 09:33N 29°58' W 093°52'0 0.0
2016-Jul-03 08:33N 29°58' W 093°52'0 0.0
2016-Jul-03 07:32N 29°58' W 093°52'0 0.0
2016-Jul-03 06:33N 29°58' W 093°52'0 0.0
2016-Jul-03 05:29N 29°58' W 093°52'0 0.0
2016-Jul-03 04:29N 29°58' W 093°52'0 0.0
2016-Jul-03 03:33N 29°58' W 093°52'0 0.0
2016-Jul-03 02:30N 29°58' W 093°52'0 0.0
2016-Jul-03 01:33N 29°58' W 093°52'0 0.0
2016-Jul-03 00:30N 29°58' W 093°52'0 0.0
2016-Jul-02 23:32N 29°58' W 093°52'0 0.0
2016-Jul-02 22:33N 29°58' W 093°52'0 0.0
2016-Jul-02 21:31N 29°58' W 093°52'0 0.0
2016-Jul-02 20:33N 29°58' W 093°52'0 0.0
2016-Jul-02 19:32N 29°58' W 093°52'0 0.0
2016-Jul-02 18:33N 29°58' W 093°52'0 0.0
2016-Jul-02 17:31N 29°58' W 093°52'0 0.0
2016-Jul-02 16:32N 29°58' W 093°52'0 0.0
2016-Jul-02 15:33N 29°58' W 093°52'0 0.0
2016-Jul-02 14:33N 29°58' W 093°52'0 0.0
2016-Jul-02 13:33N 29°58' W 093°52'0 0.0
2016-Jul-02 12:33N 29°58' W 093°52'0 0.0
2016-Jul-02 11:33N 29°58' W 093°52'0 0.0
2016-Jul-02 10:33N 29°58' W 093°52'0 0.0
2016-Jul-02 09:33N 29°58' W 093°52'0 0.0
2016-Jul-02 08:32N 29°58' W 093°52'0 0.0
2016-Jul-02 07:33N 29°58' W 093°52'0 0.0
2016-Jul-02 06:33N 29°58' W 093°52'0 0.0
2016-Jul-02 04:33N 29°58' W 093°52'0 0.0
2016-Jul-02 03:33N 29°58' W 093°52'0 0.0
2016-Jul-02 02:27N 29°58' W 093°52'0 0.0
2016-Jul-01 23:31N 29°58' W 093°52'0 0.0
2016-Jul-01 22:33N 29°58' W 093°52'0 0.0
2016-Jul-01 21:30N 29°58' W 093°52'0 0.0
2016-Jul-01 20:30N 29°58' W 093°52'0 0.0
2016-Jul-01 19:33N 29°58' W 093°52'0 0.0
2016-Jul-01 18:30N 29°58' W 093°52'0 0.0
2016-Jul-01 17:21N 29°58' W 093°52'0 0.0
2016-Jul-01 16:33N 29°58' W 093°52'0 0.0
2016-Jul-01 15:33N 29°58' W 093°52'0 0.0
2016-Jul-01 14:32N 29°58' W 093°52'0 0.0
2016-Jul-01 13:33N 29°58' W 093°52'0 0.0
2016-Jul-01 12:33N 29°58' W 093°52'0 0.0
2016-Jul-01 11:33N 29°58' W 093°52'0 0.0
2016-Jul-01 10:33N 29°58' W 093°52'0 0.0
2016-Jul-01 09:33N 29°58' W 093°52'0 0.0
2016-Jul-01 08:33N 29°58' W 093°52'0 0.0
2016-Jul-01 07:33N 29°58' W 093°52'0 0.0
2016-Jul-01 06:33N 29°58' W 093°52'0 0.0
2016-Jul-01 05:33N 29°58' W 093°52'0 0.0
2016-Jul-01 04:32N 29°58' W 093°52'0 0.0
2016-Jul-01 03:33N 29°58' W 093°52'0 0.0
2016-Jul-01 02:33N 29°58' W 093°52'0 0.0
2016-Jul-01 01:33N 29°58' W 093°52'0 0.0
2016-Jul-01 00:31N 29°58' W 093°52'0 0.0
2016-Jun-30 23:27N 29°58' W 093°52'0 0.0
2016-Jun-30 22:32N 29°58' W 093°52'0 0.0
2016-Jun-30 21:33N 29°58' W 093°52'0 0.0
2016-Jun-30 20:33N 29°58' W 093°52'0 0.0
2016-Jun-30 19:29N 29°58' W 093°52'0 0.0
2016-Jun-30 18:33N 29°58' W 093°52'0 0.0
2016-Jun-30 17:33N 29°58' W 093°52'0 0.0
2016-Jun-30 16:33N 29°58' W 093°52'0 0.0
2016-Jun-30 15:33N 29°58' W 093°52'0 0.0
2016-Jun-30 14:33N 29°58' W 093°52'0 0.0
2016-Jun-30 13:33N 29°58' W 093°52'0 0.0
2016-Jun-30 12:33N 29°58' W 093°52'0 0.0
2016-Jun-30 11:33N 29°58' W 093°52'0 0.0
2016-Jun-30 10:33N 29°58' W 093°52'0 0.0
2016-Jun-30 09:33N 29°58' W 093°52'0 0.0
2016-Jun-30 08:33N 29°58' W 093°52'0 0.0
2016-Jun-30 07:33N 29°58' W 093°52'0 0.0
2016-Jun-30 06:33N 29°58' W 093°52'0 0.0
2016-Jun-30 05:33N 29°58' W 093°52'0 0.0
2016-Jun-30 04:33N 29°58' W 093°52'0 0.0
2016-Jun-30 03:33N 29°58' W 093°52'0 0.0
2016-Jun-30 02:33N 29°58' W 093°52'0 0.0
2016-Jun-30 01:33N 29°58' W 093°52'0 0.0
2016-Jun-30 00:33N 29°58' W 093°52'0 0.0
2016-Jun-29 21:31N 29°58' W 093°52'0 0.0
2016-Jun-29 20:32N 29°58' W 093°52'0 0.0
2016-Jun-29 19:30N 29°58' W 093°52'0 0.0
2016-Jun-29 18:30N 29°58' W 093°52'0 0.0
2016-Jun-29 16:28N 29°58' W 093°52'0 0.0
2016-Jun-29 15:33N 29°58' W 093°52'0 0.0
2016-Jun-29 14:33N 29°58' W 093°52'0 0.0
2016-Jun-29 13:33N 29°58' W 093°52'0 0.0
2016-Jun-29 12:33N 29°58' W 093°52'0 0.0
2016-Jun-29 11:33N 29°58' W 093°52'0 0.0
2016-Jun-29 10:33N 29°58' W 093°52'0 0.0
2016-Jun-29 09:33N 29°58' W 093°52'0 0.0
2016-Jun-29 08:33N 29°58' W 093°52'0 0.0
2016-Jun-29 07:33N 29°58' W 093°52'0 0.0
2016-Jun-29 06:33N 29°58' W 093°52'0 0.0
2016-Jun-29 05:33N 29°58' W 093°52'0 0.0
2016-Jun-29 04:33N 29°58' W 093°52'0 0.0
2016-Jun-29 03:33N 29°58' W 093°52'0 0.0
2016-Jun-29 02:33N 29°58' W 093°52'0 0.0
2016-Jun-29 01:33N 29°58' W 093°52'0 0.0
2016-Jun-29 00:33N 29°58' W 093°52'0 0.0
2016-Jun-28 23:33N 29°58' W 093°52'0 0.0
2016-Jun-28 22:32N 29°58' W 093°52'0 0.0
2016-Jun-28 21:31N 29°58' W 093°52'0 0.0
2016-Jun-28 20:29N 29°58' W 093°52'0 0.0
2016-Jun-28 19:33N 29°58' W 093°52'0 0.0
2016-Jun-28 18:33N 29°58' W 093°52'0 0.0
2016-Jun-28 17:33N 29°58' W 093°52'0 0.0
2016-Jun-28 16:33N 29°58' W 093°52'0 0.0
2016-Jun-28 15:32N 29°58' W 093°52'0 0.0
2016-Jun-28 14:30N 29°58' W 093°52'0 0.0
2016-Jun-28 13:33N 29°58' W 093°52'0 0.0
2016-Jun-28 12:33N 29°58' W 093°52'0 0.0
2016-Jun-28 11:33N 29°58' W 093°52'0 0.0
2016-Jun-28 10:34N 29°58' W 093°52'0 0.0
2016-Jun-28 09:34N 29°58' W 093°52'0 0.0
2016-Jun-28 08:34N 29°58' W 093°52'0 0.0
2016-Jun-28 07:33N 29°58' W 093°52'0 0.0
2016-Jun-28 06:33N 29°58' W 093°52'0 0.0
2016-Jun-28 04:34N 29°58' W 093°52'0 0.0
2016-Jun-28 03:33N 29°58' W 093°52'0 0.0
2016-Jun-28 02:34N 29°58' W 093°52'0 0.0
2016-Jun-28 01:34N 29°58' W 093°52'0 0.0
2016-Jun-28 00:32N 29°58' W 093°52'  
Track history (hours):
 
Tides and Currents Weather Stations Pressure Air Temp Water Temp Dewpoint Dewpoint Depression Visibility Wind Speed Wind Dir Waves Ship Positions

John G

Owner: Marquette Transportation Company Offshore LLC, Jefferson, LA. More information available from US FCC via Universal Licensing System and Coast Guard Vessel Documentation Center.

Last reported at 2016-Jul-08 00:07 UTC. Time now 2016-Sep-27 19:04 UTC.
Position N 29°51' W 091°54'.
Warning: this ship's position is months out of date.

Length 24 m.

Type: Towing. MMSI: 367009680.

Date/timePositionNaut miles runAvg speedWind from/ knotsBaromVisibWave heightAir tempDewpointWater temp
2016-Jul-08 00:07N 29°51' W 091°54'4 7.3
2016-Jul-07 23:33N 29°50' W 091°59'7 7.0
2016-Jul-07 22:33N 29°48' W 092°07'6 5.7
2016-Jul-07 21:33N 29°47' W 092°13'7 6.9
2016-Jul-07 20:33N 29°51' W 092°20'7 6.6
2016-Jul-07 19:33N 29°54' W 092°27'21 6.8
2016-Jul-07 16:32N 29°58' W 092°51'7 6.8
2016-Jul-07 15:33N 29°56' W 092°58'7 6.8
2016-Jul-07 14:33N 29°56' W 093°06'6 6.2
2016-Jul-07 13:33N 29°59' W 093°12'7 6.7
2016-Jul-07 12:33N 30°04' W 093°16'5 5.3
2016-Jul-07 11:33N 30°04' W 093°22'7 6.7
2016-Jul-07 10:33N 30°04' W 093°30'7 6.5
2016-Jul-07 09:33N 30°04' W 093°38'6 5.8
2016-Jul-07 08:33N 30°02' W 093°44'6 5.8
2016-Jul-07 07:33N 29°59' W 093°50'2 0.3
2016-Jul-06 23:31N 29°57' W 093°52'1 0.8
2016-Jul-06 22:33N 29°58' W 093°52'0 0.0
2016-Jul-06 21:31N 29°58' W 093°52'0 0.0
2016-Jul-06 20:33N 29°58' W 093°52'0 0.0
2016-Jul-06 19:32N 29°58' W 093°52'0 0.0
2016-Jul-06 18:33N 29°58' W 093°52'0 0.0
2016-Jul-06 17:32N 29°58' W 093°52'0 0.0
2016-Jul-06 16:32N 29°58' W 093°52'0 0.0
2016-Jul-06 15:29N 29°58' W 093°52'0 0.0
2016-Jul-06 14:32N 29°58' W 093°52'0 0.0
2016-Jul-06 13:33N 29°58' W 093°52'0 0.0
2016-Jul-06 12:32N 29°58' W 093°52'0 0.0
2016-Jul-06 11:26N 29°58' W 093°52'0 0.0
2016-Jul-06 10:33N 29°58' W 093°52'0 0.0
2016-Jul-06 09:32N 29°58' W 093°52'0 0.0
2016-Jul-06 08:28N 29°58' W 093°52'0 0.0
2016-Jul-06 07:32N 29°58' W 093°52'0 0.0
2016-Jul-06 06:33N 29°58' W 093°52'0 0.0
2016-Jul-06 05:33N 29°58' W 093°52'0 0.0
2016-Jul-06 04:33N 29°58' W 093°52'0 0.0
2016-Jul-06 03:33N 29°58' W 093°52'0 0.0
2016-Jul-06 02:33N 29°58' W 093°52'0 0.0
2016-Jul-06 01:33N 29°58' W 093°52'1 0.4
2016-Jul-05 23:31N 29°57' W 093°52'1 0.8
2016-Jul-05 22:33N 29°58' W 093°52'0 0.0
2016-Jul-05 21:33N 29°58' W 093°52'0 0.0
2016-Jul-05 20:33N 29°58' W 093°52'0 0.0
2016-Jul-05 19:32N 29°58' W 093°52'0 0.0
2016-Jul-05 18:33N 29°58' W 093°52'0 0.0
2016-Jul-05 17:33N 29°58' W 093°52'0 0.0
2016-Jul-05 16:33N 29°58' W 093°52'0 0.0
2016-Jul-05 15:33N 29°58' W 093°52'0 0.0
2016-Jul-05 14:32N 29°58' W 093°52'0 0.0
2016-Jul-05 13:32N 29°58' W 093°52'0 0.0
2016-Jul-05 12:32N 29°58' W 093°52'0 0.0
2016-Jul-05 11:33N 29°58' W 093°52'0 0.0
2016-Jul-05 10:33N 29°58' W 093°52'0 0.0
2016-Jul-05 09:30N 29°58' W 093°52'0 0.0
2016-Jul-05 08:33N 29°58' W 093°52'0 0.0
2016-Jul-05 07:32N 29°58' W 093°52'0 0.0
2016-Jul-05 06:33N 29°58' W 093°52'0 0.0
2016-Jul-05 04:33N 29°58' W 093°52'0 0.0
2016-Jul-05 03:33N 29°58' W 093°52'0 0.0
2016-Jul-05 02:33N 29°58' W 093°52'0 0.0
2016-Jul-05 01:33N 29°58' W 093°52'0 0.0
2016-Jul-05 00:31N 29°58' W 093°52'0 0.0
2016-Jul-04 23:33N 29°58' W 093°52'0 0.0
2016-Jul-04 22:33N 29°58' W 093°52'0 0.0
2016-Jul-04 21:32N 29°58' W 093°52'0 0.0
2016-Jul-04 20:33N 29°58' W 093°52'0 0.0
2016-Jul-04 19:33N 29°58' W 093°52'0 0.0
2016-Jul-04 18:32N 29°58' W 093°52'0 0.0
2016-Jul-04 17:33N 29°58' W 093°52'0 0.0
2016-Jul-04 16:33N 29°58' W 093°52'0 0.0
2016-Jul-04 15:33N 29°58' W 093°52'0 0.0
2016-Jul-04 14:33N 29°58' W 093°52'0 0.0
2016-Jul-04 13:32N 29°58' W 093°52'0 0.0
2016-Jul-04 12:32N 29°58' W 093°52'0 0.0
2016-Jul-04 11:33N 29°58' W 093°52'0 0.0
2016-Jul-04 10:33N 29°58' W 093°52'0 0.0
2016-Jul-04 09:33N 29°58' W 093°52'0 0.0
2016-Jul-04 08:33N 29°58' W 093°52'0 0.0
2016-Jul-04 07:32N 29°58' W 093°52'0 0.0
2016-Jul-04 06:33N 29°58' W 093°52'0 0.0
2016-Jul-04 05:31N 29°58' W 093°52'0 0.0
2016-Jul-04 04:33N 29°58' W 093°52'0 0.0
2016-Jul-04 03:33N 29°58' W 093°52'0 0.0
2016-Jul-04 02:33N 29°58' W 093°52'0 0.0
2016-Jul-04 01:33N 29°58' W 093°52'0 0.0
2016-Jul-04 00:32N 29°58' W 093°52'0 0.0
2016-Jul-03 23:33N 29°58' W 093°52'0 0.0
2016-Jul-03 22:33N 29°58' W 093°52'0 0.0
2016-Jul-03 21:30N 29°58' W 093°52'0 0.0
2016-Jul-03 20:27N 29°58' W 093°52'0 0.0
2016-Jul-03 19:32N 29°58' W 093°52'0 0.0
2016-Jul-03 18:33N 29°58' W 093°52'0 0.0
2016-Jul-03 17:33N 29°58' W 093°52'0 0.0
2016-Jul-03 16:32N 29°58' W 093°52'0 0.0
2016-Jul-03 15:33N 29°58' W 093°52'0 0.0
2016-Jul-03 14:33N 29°58' W 093°52'0 0.0
2016-Jul-03 13:30N 29°58' W 093°52'0 0.0
2016-Jul-03 12:32N 29°58' W 093°52'0 0.0
2016-Jul-03 11:33N 29°58' W 093°52'0 0.0
2016-Jul-03 10:33N 29°58' W 093°52'0 0.0
2016-Jul-03 09:33N 29°58' W 093°52'0 0.0
2016-Jul-03 08:33N 29°58' W 093°52'0 0.0
2016-Jul-03 07:32N 29°58' W 093°52'0 0.0
2016-Jul-03 06:33N 29°58' W 093°52'0 0.0
2016-Jul-03 05:29N 29°58' W 093°52'0 0.0
2016-Jul-03 04:29N 29°58' W 093°52'0 0.0
2016-Jul-03 03:33N 29°58' W 093°52'0 0.0
2016-Jul-03 02:30N 29°58' W 093°52'0 0.0
2016-Jul-03 01:33N 29°58' W 093°52'0 0.0
2016-Jul-03 00:30N 29°58' W 093°52'0 0.0
2016-Jul-02 23:32N 29°58' W 093°52'0 0.0
2016-Jul-02 22:33N 29°58' W 093°52'0 0.0
2016-Jul-02 21:31N 29°58' W 093°52'0 0.0
2016-Jul-02 20:33N 29°58' W 093°52'0 0.0
2016-Jul-02 19:32N 29°58' W 093°52'0 0.0
2016-Jul-02 18:33N 29°58' W 093°52'0 0.0
2016-Jul-02 17:31N 29°58' W 093°52'0 0.0
2016-Jul-02 16:32N 29°58' W 093°52'0 0.0
2016-Jul-02 15:33N 29°58' W 093°52'0 0.0
2016-Jul-02 14:33N 29°58' W 093°52'0 0.0
2016-Jul-02 13:33N 29°58' W 093°52'0 0.0
2016-Jul-02 12:33N 29°58' W 093°52'0 0.0
2016-Jul-02 11:33N 29°58' W 093°52'0 0.0
2016-Jul-02 10:33N 29°58' W 093°52'0 0.0
2016-Jul-02 09:33N 29°58' W 093°52'0 0.0
2016-Jul-02 08:32N 29°58' W 093°52'0 0.0
2016-Jul-02 07:33N 29°58' W 093°52'0 0.0
2016-Jul-02 06:33N 29°58' W 093°52'0 0.0
2016-Jul-02 04:33N 29°58' W 093°52'0 0.0
2016-Jul-02 03:33N 29°58' W 093°52'0 0.0
2016-Jul-02 02:27N 29°58' W 093°52'0 0.0
2016-Jul-01 23:31N 29°58' W 093°52'0 0.0
2016-Jul-01 22:33N 29°58' W 093°52'0 0.0
2016-Jul-01 21:30N 29°58' W 093°52'0 0.0
2016-Jul-01 20:30N 29°58' W 093°52'0 0.0
2016-Jul-01 19:33N 29°58' W 093°52'0 0.0
2016-Jul-01 18:30N 29°58' W 093°52'0 0.0
2016-Jul-01 17:21N 29°58' W 093°52'0 0.0
2016-Jul-01 16:33N 29°58' W 093°52'0 0.0
2016-Jul-01 15:33N 29°58' W 093°52'0 0.0
2016-Jul-01 14:32N 29°58' W 093°52'0 0.0
2016-Jul-01 13:33N 29°58' W 093°52'0 0.0
2016-Jul-01 12:33N 29°58' W 093°52'0 0.0
2016-Jul-01 11:33N 29°58' W 093°52'0 0.0
2016-Jul-01 10:33N 29°58' W 093°52'0 0.0
2016-Jul-01 09:33N 29°58' W 093°52'0 0.0
2016-Jul-01 08:33N 29°58' W 093°52'0 0.0
2016-Jul-01 07:33N 29°58' W 093°52'0 0.0
2016-Jul-01 06:33N 29°58' W 093°52'0 0.0
2016-Jul-01 05:33N 29°58' W 093°52'0 0.0
2016-Jul-01 04:32N 29°58' W 093°52'0 0.0
2016-Jul-01 03:33N 29°58' W 093°52'0 0.0
2016-Jul-01 02:33N 29°58' W 093°52'0 0.0
2016-Jul-01 01:33N 29°58' W 093°52'0 0.0
2016-Jul-01 00:31N 29°58' W 093°52'0 0.0
2016-Jun-30 23:27N 29°58' W 093°52'0 0.0
2016-Jun-30 22:32N 29°58' W 093°52'0 0.0
2016-Jun-30 21:33N 29°58' W 093°52'0 0.0
2016-Jun-30 20:33N 29°58' W 093°52'0 0.0
2016-Jun-30 19:29N 29°58' W 093°52'0 0.0
2016-Jun-30 18:33N 29°58' W 093°52'0 0.0
2016-Jun-30 17:33N 29°58' W 093°52'0 0.0
2016-Jun-30 16:33N 29°58' W 093°52'0 0.0
2016-Jun-30 15:33N 29°58' W 093°52'0 0.0
2016-Jun-30 14:33N 29°58' W 093°52'0 0.0
2016-Jun-30 13:33N 29°58' W 093°52'0 0.0
2016-Jun-30 12:33N 29°58' W 093°52'0 0.0
2016-Jun-30 11:33N 29°58' W 093°52'0 0.0
2016-Jun-30 10:33N 29°58' W 093°52'0 0.0
2016-Jun-30 09:33N 29°58' W 093°52'0 0.0
2016-Jun-30 08:33N 29°58' W 093°52'0 0.0
2016-Jun-30 07:33N 29°58' W 093°52'0 0.0
2016-Jun-30 06:33N 29°58' W 093°52'0 0.0
2016-Jun-30 05:33N 29°58' W 093°52'0 0.0
2016-Jun-30 04:33N 29°58' W 093°52'0 0.0
2016-Jun-30 03:33N 29°58' W 093°52'0 0.0
2016-Jun-30 02:33N 29°58' W 093°52'0 0.0
2016-Jun-30 01:33N 29°58' W 093°52'0 0.0
2016-Jun-30 00:33N 29°58' W 093°52'0 0.0
2016-Jun-29 21:31N 29°58' W 093°52'0 0.0
2016-Jun-29 20:32N 29°58' W 093°52'0 0.0
2016-Jun-29 19:30N 29°58' W 093°52'0 0.0
2016-Jun-29 18:30N 29°58' W 093°52'0 0.0
2016-Jun-29 16:28N 29°58' W 093°52'0 0.0
2016-Jun-29 15:33N 29°58' W 093°52'0 0.0
2016-Jun-29 14:33N 29°58' W 093°52'0 0.0
2016-Jun-29 13:33N 29°58' W 093°52'0 0.0
2016-Jun-29 12:33N 29°58' W 093°52'0 0.0
2016-Jun-29 11:33N 29°58' W 093°52'0 0.0
2016-Jun-29 10:33N 29°58' W 093°52'0 0.0
2016-Jun-29 09:33N 29°58' W 093°52'0 0.0
2016-Jun-29 08:33N 29°58' W 093°52'0 0.0
2016-Jun-29 07:33N 29°58' W 093°52'0 0.0
2016-Jun-29 06:33N 29°58' W 093°52'0 0.0
2016-Jun-29 05:33N 29°58' W 093°52'0 0.0
2016-Jun-29 04:33N 29°58' W 093°52'0 0.0
2016-Jun-29 03:33N 29°58' W 093°52'0 0.0
2016-Jun-29 02:33N 29°58' W 093°52'0 0.0
2016-Jun-29 01:33N 29°58' W 093°52'0 0.0
2016-Jun-29 00:33N 29°58' W 093°52'0 0.0
2016-Jun-28 23:33N 29°58' W 093°52'0 0.0
2016-Jun-28 22:32N 29°58' W 093°52'0 0.0
2016-Jun-28 21:31N 29°58' W 093°52'0 0.0
2016-Jun-28 20:29N 29°58' W 093°52'0 0.0
2016-Jun-28 19:33N 29°58' W 093°52'0 0.0
2016-Jun-28 18:33N 29°58' W 093°52'0 0.0
2016-Jun-28 17:33N 29°58' W 093°52'0 0.0
2016-Jun-28 16:33N 29°58' W 093°52'0 0.0
2016-Jun-28 15:32N 29°58' W 093°52'0 0.0
2016-Jun-28 14:30N 29°58' W 093°52'0 0.0
2016-Jun-28 13:33N 29°58' W 093°52'0 0.0
2016-Jun-28 12:33N 29°58' W 093°52'0 0.0
2016-Jun-28 11:33N 29°58' W 093°52'0 0.0
2016-Jun-28 10:34N 29°58' W 093°52'0 0.0
2016-Jun-28 09:34N 29°58' W 093°52'0 0.0
2016-Jun-28 08:34N 29°58' W 093°52'0 0.0
2016-Jun-28 07:33N 29°58' W 093°52'0 0.0
2016-Jun-28 06:33N 29°58' W 093°52'0 0.0
2016-Jun-28 04:34N 29°58' W 093°52'0 0.0
2016-Jun-28 03:33N 29°58' W 093°52'0 0.0
2016-Jun-28 02:34N 29°58' W 093°52'0 0.0
2016-Jun-28 01:34N 29°58' W 093°52'0 0.0
2016-Jun-28 00:32N 29°58' W 093°52'  

Dump ship's entire track history